Time;durP1;ratioP1;P1;durP2;ratioP2;P2;SDS_P1;SDS_P2;PMS_P1;PMS_P2;Temp;Humidity;BMP_temperature;BMP_pressure;BME280_temperature;BME280_humidity;BME280_pressure;Samples;Min_cycle;Max_cycle;Signal;HPM_P1;HPM_P2
2023/02/03 00:02:44;;;;;;;21.95;10.70;;;;;;;;;;6124278;28;20233;-67
2023/02/03 00:05:47;;;;;;;24.83;11.30;;;;;;;;;;6127497;28;20055;-67
2023/02/03 00:08:49;;;;;;;24.42;11.63;;;;;;;;;;6123806;28;20114;-68
2023/02/03 00:11:51;;;;;;;22.75;10.60;;;;;;;;;;6125016;28;21816;-68
2023/02/03 00:14:52;;;;;;;21.38;11.38;;;;;;;;;;6123548;29;20099;-67
2023/02/03 00:17:54;;;;;;;24.33;11.10;;;;;;;;;;6124373;28;20052;-68
2023/02/03 00:20:57;;;;;;;21.95;11.38;;;;;;;;;;6124104;28;20060;-67
2023/02/03 00:23:59;;;;;;;20.58;12.38;;;;;;;;;;6124560;29;20115;-68
2023/02/03 00:27:00;;;;;;;28.05;15.95;;;;;;;;;;6124159;28;20055;-67
2023/02/03 00:30:03;;;;;;;37.25;17.52;;;;;;;;;;6127351;28;20063;-67
2023/02/03 00:33:05;;;;;;;88.97;42.33;;;;;;;;;;6124818;28;20060;-67
2023/02/03 00:36:09;;;;;;;85.63;32.88;;;;;;;;;;6127325;28;20051;-67
2023/02/03 00:39:11;;;;;;;51.00;21.98;;;;;;;;;;6128433;28;20135;-67
2023/02/03 00:42:12;;;;;;;21.17;11.48;;;;;;;;;;6125047;28;20131;-66
2023/02/03 00:45:14;;;;;;;22.20;11.50;;;;;;;;;;6126569;28;20048;-67
2023/02/03 00:48:16;;;;;;;21.13;11.43;;;;;;;;;;6124586;28;20102;-67
2023/02/03 00:51:20;;;;;;;21.92;10.73;;;;;;;;;;6127140;28;20331;-67
2023/02/03 00:54:21;;;;;;;20.33;10.82;;;;;;;;;;6128396;29;20105;-67
2023/02/03 00:57:23;;;;;;;20.33;10.88;;;;;;;;;;6126704;28;20059;-67
2023/02/03 01:00:25;;;;;;;21.30;11.15;;;;;;;;;;6124567;28;20509;-66
2023/02/03 01:03:27;;;;;;;21.15;10.27;;;;;;;;;;6124955;28;20354;-66
2023/02/03 01:06:30;;;;;;;21.05;10.18;;;;;;;;;;6123660;29;20063;-66
2023/02/03 01:09:33;;;;;;;23.17;10.05;;;;;;;;;;6123603;29;20048;-66
2023/02/03 01:12:35;;;;;;;26.30;11.63;;;;;;;;;;6126092;28;20055;-66
2023/02/03 01:15:37;;;;;;;21.13;10.10;;;;;;;;;;6122180;29;20361;-68
2023/02/03 01:18:39;;;;;;;22.08;11.07;;;;;;;;;;6126191;28;20099;-68
2023/02/03 01:21:42;;;;;;;20.48;10.00;;;;;;;;;;6127222;29;20059;-68
2023/02/03 01:24:44;;;;;;;18.00;9.75;;;;;;;;;;6126220;28;20054;-67
2023/02/03 01:27:45;;;;;;;23.02;10.30;;;;;;;;;;6122150;28;20279;-67
2023/02/03 01:30:47;;;;;;;19.88;10.98;;;;;;;;;;6126591;28;20063;-68
2023/02/03 01:33:49;;;;;;;21.10;10.27;;;;;;;;;;6127570;28;20052;-67
2023/02/03 01:36:52;;;;;;;18.02;10.50;;;;;;;;;;6123127;28;20055;-67
2023/02/03 01:39:54;;;;;;;19.73;9.93;;;;;;;;;;6126506;29;20052;-67
2023/02/03 01:42:55;;;;;;;18.65;10.05;;;;;;;;;;6128908;28;20059;-68
2023/02/03 01:45:57;;;;;;;19.38;9.48;;;;;;;;;;6126767;29;20064;-66
2023/02/03 01:49:04;;;;;;;18.02;9.75;;;;;;;;;;6127734;28;20202;-68
2023/02/03 01:52:08;;;;;;;20.02;10.20;;;;;;;;;;6124605;28;20056;-68
2023/02/03 01:55:11;;;;;;;18.77;9.50;;;;;;;;;;6126441;28;20047;-67
2023/02/03 01:58:19;;;;;;;17.38;8.65;;;;;;;;;;6127567;28;20090;-68
2023/02/03 02:01:20;;;;;;;16.88;9.43;;;;;;;;;;6123685;28;20070;-67
2023/02/03 02:04:23;;;;;;;19.20;8.13;;;;;;;;;;6127328;28;20055;-68
2023/02/03 02:07:26;;;;;;;17.77;8.13;;;;;;;;;;6124274;28;20048;-68
2023/02/03 02:10:29;;;;;;;17.05;7.53;;;;;;;;;;6124276;28;20355;-66
2023/02/03 02:13:33;;;;;;;17.35;7.70;;;;;;;;;;6125316;29;20487;-68
2023/02/03 02:16:41;;;;;;;13.65;6.63;;;;;;;;;;6123233;28;20150;-66
2023/02/03 02:20:05;;;;;;;11.57;7.20;;;;;;;;;;6127966;28;20343;-68
2023/02/03 02:23:35;;;;;;;15.20;7.25;;;;;;;;;;6123842;28;20055;-68
2023/02/03 02:26:55;;;;;;;12.70;7.55;;;;;;;;;;6126184;28;20055;-69
2023/02/03 02:30:21;;;;;;;13.05;7.15;;;;;;;;;;6130077;28;20239;-68
2023/02/03 02:33:32;;;;;;;15.38;8.60;;;;;;;;;;6122770;28;20272;-66
2023/02/03 02:36:39;;;;;;;14.23;8.45;;;;;;;;;;6124832;28;20149;-68
2023/02/03 02:39:46;;;;;;;17.10;8.93;;;;;;;;;;6121829;29;20109;-67
2023/02/03 02:42:59;;;;;;;15.57;8.88;;;;;;;;;;6125663;28;20130;-68
2023/02/03 02:46:03;;;;;;;14.25;8.25;;;;;;;;;;6126076;28;20116;-67
2023/02/03 02:49:09;;;;;;;12.40;7.70;;;;;;;;;;6127803;28;20060;-68
2023/02/03 02:52:13;;;;;;;14.32;8.55;;;;;;;;;;6125665;29;20068;-68
2023/02/03 02:55:19;;;;;;;14.73;9.25;;;;;;;;;;6128617;28;20067;-67
2023/02/03 02:58:21;;;;;;;15.18;8.57;;;;;;;;;;6131782;28;20339;-68
2023/02/03 03:01:23;;;;;;;15.10;8.57;;;;;;;;;;6127400;28;20059;-67
2023/02/03 03:04:28;;;;;;;16.02;7.88;;;;;;;;;;6131613;28;20086;-67
2023/02/03 03:07:31;;;;;;;14.15;8.82;;;;;;;;;;6127265;28;20039;-68
2023/02/03 03:10:33;;;;;;;16.02;8.45;;;;;;;;;;6128607;28;20340;-68
2023/02/03 03:13:37;;;;;;;14.63;8.07;;;;;;;;;;6127963;28;20079;-67
2023/02/03 03:16:39;;;;;;;;;;;;;;;;;;6126806;28;20173;-67
2023/02/03 03:19:46;;;;;;;15.00;8.32;;;;;;;;;;6131184;28;19930;-68
2023/02/03 03:22:52;;;;;;;21.52;9.50;;;;;;;;;;6127332;29;20102;-68
2023/02/03 03:25:59;;;;;;;15.40;8.20;;;;;;;;;;6128600;28;20055;-68
2023/02/03 03:29:07;;;;;;;13.45;8.13;;;;;;;;;;6130121;28;20351;-67
2023/02/03 03:32:09;;;;;;;14.02;8.02;;;;;;;;;;6129137;28;20075;-68
2023/02/03 03:35:12;;;;;;;16.85;8.98;;;;;;;;;;6129595;28;20055;-67
2023/02/03 03:38:18;;;;;;;13.65;7.97;;;;;;;;;;6127211;29;20154;-68
2023/02/03 03:41:26;;;;;;;15.93;8.75;;;;;;;;;;6125418;28;20044;-68
2023/02/03 03:44:31;;;;;;;17.63;8.77;;;;;;;;;;6127429;28;20055;-68
2023/02/03 03:47:36;;;;;;;16.50;9.38;;;;;;;;;;6129268;29;20127;-68
2023/02/03 03:50:43;;;;;;;17.80;8.38;;;;;;;;;;6124824;28;20248;-68
2023/02/03 03:53:45;;;;;;;14.65;8.40;;;;;;;;;;6129447;28;20056;-67
2023/02/03 03:56:50;;;;;;;16.42;8.48;;;;;;;;;;6125565;29;20062;-67
2023/02/03 03:59:52;;;;;;;14.85;8.55;;;;;;;;;;6129488;28;20387;-68
2023/02/03 04:02:55;;;;;;;16.65;9.18;;;;;;;;;;6124223;28;20086;-68
2023/02/03 04:05:58;;;;;;;15.55;8.88;;;;;;;;;;6124661;29;20061;-67
2023/02/03 04:09:01;;;;;;;15.20;8.73;;;;;;;;;;6127530;28;20048;-68
2023/02/03 04:12:04;;;;;;;13.27;7.97;;;;;;;;;;6127024;29;20057;-69
2023/02/03 04:15:06;;;;;;;16.38;8.70;;;;;;;;;;6130018;28;20056;-68
2023/02/03 04:18:10;;;;;;;13.95;7.93;;;;;;;;;;6127303;28;20063;-68
2023/02/03 04:21:13;;;;;;;12.15;7.82;;;;;;;;;;6125735;28;20295;-68
2023/02/03 04:24:15;;;;;;;15.40;7.80;;;;;;;;;;6129320;28;20342;-68
2023/02/03 04:27:17;;;;;;;18.50;8.80;;;;;;;;;;6128736;28;20059;-68
2023/02/03 04:30:18;;;;;;;14.52;8.13;;;;;;;;;;6126391;28;20055;-68
2023/02/03 04:33:20;;;;;;;14.45;8.15;;;;;;;;;;6127850;28;20050;-68
2023/02/03 04:36:23;;;;;;;17.40;8.48;;;;;;;;;;6129423;28;20060;-67
2023/02/03 04:39:25;;;;;;;15.60;7.95;;;;;;;;;;6125502;29;20052;-68
2023/02/03 04:42:27;;;;;;;18.55;9.40;;;;;;;;;;6125897;28;20052;-68
2023/02/03 04:45:28;;;;;;;17.67;9.02;;;;;;;;;;6124570;28;20058;-68
2023/02/03 04:48:30;;;;;;;19.55;9.13;;;;;;;;;;6128435;28;20287;-68
2023/02/03 04:51:33;;;;;;;16.25;9.60;;;;;;;;;;6126661;28;20103;-67
2023/02/03 04:54:35;;;;;;;20.30;10.38;;;;;;;;;;6127621;28;20056;-66
2023/02/03 04:57:36;;;;;;;22.70;10.75;;;;;;;;;;6127227;28;20043;-68
2023/02/03 05:00:38;;;;;;;25.00;11.85;;;;;;;;;;6127180;28;20064;-66
2023/02/03 05:03:40;;;;;;;21.50;11.80;;;;;;;;;;6124807;29;20119;-67
2023/02/03 05:06:43;;;;;;;24.65;11.25;;;;;;;;;;6126366;28;20111;-67
2023/02/03 05:09:44;;;;;;;24.52;12.40;;;;;;;;;;6125487;28;21020;-68
2023/02/03 05:12:46;;;;;;;22.13;11.82;;;;;;;;;;6125676;28;20065;-67
2023/02/03 05:15:47;;;;;;;23.08;11.32;;;;;;;;;;6124208;28;20280;-68
2023/02/03 05:18:49;;;;;;;29.10;12.52;;;;;;;;;;6127198;28;20047;-67
2023/02/03 05:21:52;;;;;;;24.85;12.18;;;;;;;;;;6128609;28;20075;-68
2023/02/03 05:24:54;;;;;;;20.00;11.50;;;;;;;;;;6126326;28;20059;-67
2023/02/03 05:27:55;;;;;;;23.83;11.35;;;;;;;;;;6124206;28;20048;-68
2023/02/03 05:30:58;;;;;;;26.42;12.30;;;;;;;;;;6125029;28;20047;-68
2023/02/03 05:34:00;;;;;;;22.98;11.73;;;;;;;;;;6128168;29;20078;-67
2023/02/03 05:37:03;;;;;;;29.05;11.65;;;;;;;;;;6126241;28;20098;-68
2023/02/03 05:43:25;;;;;;;17.08;10.80;;;;;;;;;;6123435;28;20059;-68
2023/02/03 05:46:26;;;;;;;18.38;9.13;;;;;;;;;;6123835;28;20063;-67
2023/02/03 05:49:28;;;;;;;16.67;9.30;;;;;;;;;;6127147;28;20059;-67
2023/02/03 05:52:31;;;;;;;16.60;8.93;;;;;;;;;;6125522;28;20063;-67
2023/02/03 05:55:33;;;;;;;18.25;8.90;;;;;;;;;;6126639;28;20095;-67
2023/02/03 05:58:35;;;;;;;20.33;9.70;;;;;;;;;;6125025;28;20221;-66
2023/02/03 06:01:37;;;;;;;17.10;9.45;;;;;;;;;;6126899;28;20108;-67
2023/02/03 06:04:39;;;;;;;18.90;9.23;;;;;;;;;;6121087;28;20276;-68
2023/02/03 06:07:43;;;;;;;22.42;8.65;;;;;;;;;;6126328;28;20107;-67
2023/02/03 06:10:44;;;;;;;20.48;8.32;;;;;;;;;;6123727;28;20099;-67
2023/02/03 06:13:47;;;;;;;15.95;7.90;;;;;;;;;;6125153;29;20047;-64
2023/02/03 06:16:49;;;;;;;15.05;7.60;;;;;;;;;;6122912;28;20040;-66
2023/02/03 06:19:50;;;;;;;17.45;8.93;;;;;;;;;;6123680;28;20050;-67
2023/02/03 06:22:53;;;;;;;17.15;8.63;;;;;;;;;;6126816;28;20150;-66
2023/02/03 06:25:55;;;;;;;20.40;8.60;;;;;;;;;;6131075;28;20221;-65
2023/02/03 06:28:57;;;;;;;13.98;8.25;;;;;;;;;;6127117;28;20107;-70
2023/02/03 06:31:58;;;;;;;17.65;9.40;;;;;;;;;;6130271;28;20066;-68
2023/02/03 06:35:00;;;;;;;16.40;8.70;;;;;;;;;;6130688;28;20067;-68
2023/02/03 06:38:03;;;;;;;20.08;10.15;;;;;;;;;;6123198;28;20048;-68
2023/02/03 06:41:05;;;;;;;21.40;10.60;;;;;;;;;;6128673;28;20051;-68
2023/02/03 06:44:07;;;;;;;23.95;12.40;;;;;;;;;;6128674;28;20064;-68
2023/02/03 06:47:09;;;;;;;25.45;11.60;;;;;;;;;;6127198;28;20393;-67
2023/02/03 06:50:12;;;;;;;24.40;12.65;;;;;;;;;;6127075;28;20052;-67
2023/02/03 06:53:15;;;;;;;24.17;12.63;;;;;;;;;;6128442;28;20107;-68
2023/02/03 06:56:17;;;;;;;23.65;13.00;;;;;;;;;;6127343;28;20394;-67
2023/02/03 06:59:19;;;;;;;29.02;13.63;;;;;;;;;;6128510;28;20051;-68
2023/02/03 07:02:20;;;;;;;29.25;14.32;;;;;;;;;;6130448;28;20339;-68
2023/02/03 07:05:23;;;;;;;22.55;13.85;;;;;;;;;;6129924;28;20090;-67
2023/02/03 07:08:26;;;;;;;26.58;12.00;;;;;;;;;;6127542;28;20047;-67
2023/02/03 07:11:28;;;;;;;35.08;14.50;;;;;;;;;;6129920;28;20071;-67
2023/02/03 07:14:30;;;;;;;31.08;12.68;;;;;;;;;;6127710;28;20056;-67
2023/02/03 07:17:32;;;;;;;25.10;11.93;;;;;;;;;;6124860;28;20051;-68
2023/02/03 07:20:34;;;;;;;24.95;11.90;;;;;;;;;;6127814;28;20054;-69
2023/02/03 07:23:37;;;;;;;28.30;11.65;;;;;;;;;;6126139;29;20064;-67
2023/02/03 07:26:39;;;;;;;23.90;12.02;;;;;;;;;;6128448;28;20067;-67
2023/02/03 07:29:40;;;;;;;21.88;10.63;;;;;;;;;;6129458;28;20066;-66
2023/02/03 07:32:47;;;;;;;25.25;11.35;;;;;;;;;;6127107;28;20111;-68
2023/02/03 07:35:52;;;;;;;23.48;11.98;;;;;;;;;;6125796;28;20055;-67
2023/02/03 07:38:55;;;;;;;22.10;11.40;;;;;;;;;;6128248;28;20326;-67
2023/02/03 07:41:57;;;;;;;20.67;10.98;;;;;;;;;;6132444;28;20225;-66
2023/02/03 07:44:59;;;;;;;21.58;11.30;;;;;;;;;;6128148;28;20063;-67
2023/02/03 07:48:00;;;;;;;18.80;10.57;;;;;;;;;;6128633;29;20131;-67
2023/02/03 07:51:02;;;;;;;22.25;11.82;;;;;;;;;;6126746;28;20410;-67
2023/02/03 07:54:05;;;;;;;18.88;10.82;;;;;;;;;;6126721;28;20068;-66
2023/02/03 07:57:07;;;;;;;18.75;11.35;;;;;;;;;;6126198;28;20060;-67
2023/02/03 08:00:10;;;;;;;19.98;10.90;;;;;;;;;;6126839;28;20056;-67
2023/02/03 08:03:11;;;;;;;21.67;10.85;;;;;;;;;;6128211;28;20059;-65
2023/02/03 08:06:13;;;;;;;25.20;11.38;;;;;;;;;;6129576;28;20056;-67
2023/02/03 08:09:16;;;;;;;26.73;11.38;;;;;;;;;;6127764;28;20111;-68
2023/02/03 08:12:18;;;;;;;26.08;12.00;;;;;;;;;;6128882;28;20048;-66
2023/02/03 08:15:20;;;;;;;23.50;11.63;;;;;;;;;;6129861;28;20388;-66
2023/02/03 08:18:21;;;;;;;23.38;11.63;;;;;;;;;;6126133;28;20115;-67
2023/02/03 08:21:23;;;;;;;18.80;10.68;;;;;;;;;;6132087;28;20055;-67
2023/02/03 08:24:26;;;;;;;19.75;10.45;;;;;;;;;;6127894;29;20059;-67
2023/02/03 08:27:28;;;;;;;26.50;11.80;;;;;;;;;;6128297;28;20054;-74
2023/02/03 08:30:29;;;;;;;20.15;11.07;;;;;;;;;;6128088;28;20047;-76
2023/02/03 08:33:31;;;;;;;33.92;16.63;;;;;;;;;;6129544;28;20050;-71
2023/02/03 08:36:33;;;;;;;44.17;21.65;;;;;;;;;;6127879;28;20058;-74
2023/02/03 08:39:36;;;;;;;27.73;14.57;;;;;;;;;;6127403;28;20271;-73
2023/02/03 08:42:38;;;;;;;20.47;12.87;;;;;;;;;;6126854;28;20900;-73
2023/02/03 08:45:40;;;;;;;23.27;11.93;;;;;;;;;;6129649;28;20395;-74
2023/02/03 08:48:41;;;;;;;21.23;11.68;;;;;;;;;;6124873;28;20048;-74
2023/02/03 08:51:44;;;;;;;21.25;11.48;;;;;;;;;;6127050;28;20276;-74
2023/02/03 08:54:47;;;;;;;26.25;14.98;;;;;;;;;;6125640;28;20055;-71
2023/02/03 08:57:49;;;;;;;22.77;12.95;;;;;;;;;;6127099;28;20043;-72
2023/02/03 09:00:51;;;;;;;24.02;12.80;;;;;;;;;;6126999;28;20130;-73
2023/02/03 09:03:53;;;;;;;21.50;12.25;;;;;;;;;;6128767;28;20244;-74
2023/02/03 09:06:55;;;;;;;25.25;12.98;;;;;;;;;;6125377;28;20050;-73
2023/02/03 09:09:58;;;;;;;21.52;11.85;;;;;;;;;;6124877;28;20201;-74
2023/02/03 09:13:00;;;;;;;22.00;12.80;;;;;;;;;;6125275;28;20051;-74
2023/02/03 09:16:01;;;;;;;23.35;12.55;;;;;;;;;;6126519;28;20236;-74
2023/02/03 09:19:03;;;;;;;26.20;11.95;;;;;;;;;;6127609;28;20327;-74
2023/02/03 09:22:05;;;;;;;25.60;13.80;;;;;;;;;;6127763;28;20059;-73
2023/02/03 09:25:09;;;;;;;26.65;13.27;;;;;;;;;;6125095;28;20323;-69
2023/02/03 09:28:10;;;;;;;21.95;12.23;;;;;;;;;;6126829;28;20089;-74
2023/02/03 09:31:16;;;;;;;21.55;13.00;;;;;;;;;;6128145;28;20110;-67
2023/02/03 09:34:18;;;;;;;22.33;12.25;;;;;;;;;;6123732;28;20063;-65
2023/02/03 09:37:20;;;;;;;29.50;13.30;;;;;;;;;;6125646;28;20066;-65
2023/02/03 09:40:27;;;;;;;19.30;11.32;;;;;;;;;;6126920;28;20059;-65
2023/02/03 09:43:33;;;;;;;23.38;13.27;;;;;;;;;;6126331;28;20060;-66
2023/02/03 09:46:38;;;;;;;23.38;13.13;;;;;;;;;;6122238;28;20066;-65
2023/02/03 09:49:42;;;;;;;23.73;13.00;;;;;;;;;;6125776;28;20059;-66
2023/02/03 09:52:44;;;;;;;19.33;13.38;;;;;;;;;;6122483;28;20217;-66
2023/02/03 09:55:47;;;;;;;25.30;14.10;;;;;;;;;;6124154;28;20047;-65
2023/02/03 09:58:49;;;;;;;34.63;13.43;;;;;;;;;;6124017;28;20778;-66
2023/02/03 10:01:56;;;;;;;25.63;13.77;;;;;;;;;;6133280;28;20059;-66
2023/02/03 10:05:03;;;;;;;22.40;14.35;;;;;;;;;;6129361;28;20070;-65
2023/02/03 10:08:12;;;;;;;19.73;12.65;;;;;;;;;;6131720;28;20063;-65
2023/02/03 10:11:22;;;;;;;24.00;14.23;;;;;;;;;;6131445;28;20074;-65
2023/02/03 10:14:38;;;;;;;24.15;13.82;;;;;;;;;;6134925;28;20070;-66
2023/02/03 10:17:41;;;;;;;21.90;13.18;;;;;;;;;;6132647;28;20087;-66
2023/02/03 10:20:45;;;;;;;23.27;13.32;;;;;;;;;;6133726;28;20767;-65
2023/02/03 10:23:48;;;;;;;19.48;12.52;;;;;;;;;;6133828;28;20216;-66
2023/02/03 10:26:51;;;;;;;17.55;12.30;;;;;;;;;;6133673;28;20623;-66
2023/02/03 10:29:57;;;;;;;21.58;13.40;;;;;;;;;;6132930;28;20059;-65
2023/02/03 10:33:02;;;;;;;18.77;12.50;;;;;;;;;;6133832;28;20087;-65
2023/02/03 10:36:10;;;;;;;23.00;11.85;;;;;;;;;;6133228;28;20351;-67
2023/02/03 10:39:18;;;;;;;17.67;10.00;;;;;;;;;;6132830;28;20111;-68
2023/02/03 10:42:22;;;;;;;17.58;10.40;;;;;;;;;;6131222;28;20083;-67
2023/02/03 10:45:23;;;;;;;;;;;;;;;;;;6134151;28;20055;-66
2023/02/03 10:48:25;;;;;;;18.65;9.65;;;;;;;;;;6133578;28;20222;-66
2023/02/03 10:51:29;;;;;;;15.57;7.95;;;;;;;;;;6134325;28;20224;-66
2023/02/03 10:54:33;;;;;;;15.73;8.25;;;;;;;;;;6131924;28;20067;-65
2023/02/03 10:57:38;;;;;;;12.38;7.80;;;;;;;;;;6134100;28;20055;-66
2023/02/03 11:00:39;;;;;;;12.02;8.27;;;;;;;;;;6131041;28;20048;-66
2023/02/03 11:03:43;;;;;;;19.73;9.00;;;;;;;;;;6129229;28;20055;-66
2023/02/03 11:06:55;;;;;;;11.85;8.68;;;;;;;;;;6132864;28;20051;-66
2023/02/03 11:09:57;;;;;;;14.13;8.85;;;;;;;;;;6136002;29;20159;-66
2023/02/03 11:13:15;;;;;;;16.15;9.02;;;;;;;;;;6129601;28;20086;-67
2023/02/03 11:16:19;;;;;;;19.02;8.90;;;;;;;;;;6130783;28;20048;-66
2023/02/03 11:19:21;;;;;;;19.38;10.07;;;;;;;;;;6129642;28;20052;-66
2023/02/03 11:22:28;;;;;;;14.88;9.70;;;;;;;;;;6132115;28;20063;-66
2023/02/03 11:25:33;;;;;;;13.88;9.43;;;;;;;;;;6130682;29;20331;-66
2023/02/03 11:28:36;;;;;;;15.55;10.10;;;;;;;;;;6130899;28;20379;-66
2023/02/03 11:31:38;;;;;;;17.15;10.25;;;;;;;;;;6131533;28;20106;-66
2023/02/03 11:34:41;;;;;;;15.98;9.43;;;;;;;;;;6129277;28;20055;-66
2023/02/03 11:37:46;;;;;;;20.58;9.90;;;;;;;;;;6129610;28;20063;-66
2023/02/03 11:40:59;;;;;;;15.38;10.00;;;;;;;;;;6130501;29;20048;-66
2023/02/03 11:44:11;;;;;;;13.75;8.60;;;;;;;;;;6130536;28;20055;-66
2023/02/03 11:47:15;;;;;;;14.25;9.32;;;;;;;;;;6127682;28;20064;-66
2023/02/03 11:50:28;;;;;;;16.75;9.10;;;;;;;;;;6129017;28;20119;-66
2023/02/03 11:53:37;;;;;;;13.85;8.93;;;;;;;;;;6128152;28;20047;-66
2023/02/03 11:57:00;;;;;;;13.60;9.40;;;;;;;;;;6126769;28;20154;-66
2023/02/03 12:00:16;;;;;;;13.60;9.52;;;;;;;;;;6127727;28;20376;-66
2023/02/03 12:03:30;;;;;;;13.13;8.77;;;;;;;;;;6129679;28;20114;-69
2023/02/03 12:06:54;;;;;;;17.80;9.90;;;;;;;;;;6126574;28;20268;-66
2023/02/03 12:10:00;;;;;;;16.20;9.98;;;;;;;;;;6130481;28;20275;-66
2023/02/03 12:13:07;;;;;;;14.82;9.20;;;;;;;;;;6129704;28;20421;-66
2023/02/03 12:16:23;;;;;;;17.65;9.98;;;;;;;;;;6128338;28;20119;-66
2023/02/03 12:19:32;;;;;;;16.30;10.52;;;;;;;;;;6126162;28;20396;-66
2023/02/03 12:22:38;;;;;;;17.00;10.75;;;;;;;;;;6127426;28;20054;-66
2023/02/03 12:25:51;;;;;;;17.33;10.30;;;;;;;;;;6127156;28;20106;-66
2023/02/03 12:29:00;;;;;;;17.23;10.55;;;;;;;;;;6128648;28;20130;-66
2023/02/03 12:32:07;;;;;;;15.80;10.82;;;;;;;;;;6126033;28;20056;-65
2023/02/03 12:35:15;;;;;;;15.85;10.75;;;;;;;;;;6125241;28;20067;-68
2023/02/03 12:38:22;;;;;;;18.67;11.95;;;;;;;;;;6125729;28;20119;-69
2023/02/03 12:41:26;;;;;;;17.13;11.02;;;;;;;;;;6128311;28;20048;-67
2023/02/03 12:44:29;;;;;;;;;;;;;;;;;;6128018;28;20063;-68
2023/02/03 12:47:36;;;;;;;17.55;10.13;;;;;;;;;;6125412;28;19978;-68
2023/02/03 12:50:43;;;;;;;20.75;11.95;;;;;;;;;;6126949;28;20060;-69
2023/02/03 12:53:50;;;;;;;17.20;11.27;;;;;;;;;;6125022;28;20062;-65
2023/02/03 12:56:54;;;;;;;17.33;11.73;;;;;;;;;;6129084;28;20052;-67
2023/02/03 13:00:14;;;;;;;17.90;12.00;;;;;;;;;;6123620;28;20052;-67
2023/02/03 13:03:24;;;;;;;22.35;11.90;;;;;;;;;;6127043;28;20051;-67
2023/02/03 13:06:32;;;;;;;19.92;11.52;;;;;;;;;;6125314;28;20050;-68
2023/02/03 13:09:39;;;;;;;20.55;11.68;;;;;;;;;;6123680;28;20252;-67
2023/02/03 13:12:42;;;;;;;19.88;12.25;;;;;;;;;;6124986;28;20248;-67
2023/02/03 13:15:46;;;;;;;17.45;11.45;;;;;;;;;;6128070;28;20062;-67
2023/02/03 13:18:50;;;;;;;;;;;;;;;;;;6129002;28;20115;-67
2023/02/03 13:21:51;;;;;;;16.95;9.25;;;;;;;;;;6128022;28;19933;-67
2023/02/03 13:24:56;;;;;;;17.08;10.55;;;;;;;;;;6128809;28;20066;-67
2023/02/03 13:28:06;;;;;;;16.05;9.82;;;;;;;;;;6130146;28;20048;-66
2023/02/03 13:31:19;;;;;;;18.17;9.55;;;;;;;;;;6127788;28;20066;-66
2023/02/03 13:34:43;;;;;;;20.42;9.85;;;;;;;;;;6126467;28;20130;-66
2023/02/03 13:38:07;;;;;;;16.48;9.10;;;;;;;;;;6121989;28;20224;-67
2023/02/03 13:41:12;;;;;;;13.70;8.68;;;;;;;;;;6127213;28;20340;-67
2023/02/03 13:44:17;;;;;;;14.75;9.45;;;;;;;;;;6121745;28;20063;-67
2023/02/03 13:47:22;;;;;;;14.70;8.65;;;;;;;;;;6128961;28;20058;-66
2023/02/03 13:50:28;;;;;;;14.52;10.15;;;;;;;;;;6125548;28;20115;-66
2023/02/03 13:53:34;;;;;;;11.85;8.13;;;;;;;;;;6123841;29;20043;-67
2023/02/03 13:56:36;;;;;;;13.30;8.55;;;;;;;;;;6122652;28;20064;-67
2023/02/03 13:59:42;;;;;;;13.95;9.00;;;;;;;;;;6126276;28;20066;-67
2023/02/03 14:02:46;;;;;;;13.80;8.90;;;;;;;;;;6125824;28;20056;-67
2023/02/03 14:05:51;;;;;;;14.73;8.60;;;;;;;;;;6126672;28;20063;-67
2023/02/03 14:08:53;;;;;;;12.60;8.65;;;;;;;;;;6124161;28;20043;-66
2023/02/03 14:12:22;;;;;;;13.85;8.40;;;;;;;;;;6127365;28;20355;-66
2023/02/03 14:15:30;;;;;;;14.20;7.82;;;;;;;;;;6126332;28;20132;-66
2023/02/03 14:18:34;;;;;;;11.57;7.10;;;;;;;;;;6124549;28;20146;-66
2023/02/03 14:21:41;;;;;;;11.35;7.03;;;;;;;;;;6126000;28;20071;-67
2023/02/03 14:24:46;;;;;;;11.10;6.45;;;;;;;;;;6125724;28;20102;-67
2023/02/03 14:27:49;;;;;;;8.93;5.68;;;;;;;;;;6124652;28;20056;-67
2023/02/03 14:31:09;;;;;;;12.68;6.10;;;;;;;;;;6125019;28;20147;-68
2023/02/03 14:34:15;;;;;;;14.95;6.05;;;;;;;;;;6125834;28;20048;-67
2023/02/03 14:37:23;;;;;;;8.98;5.97;;;;;;;;;;6125738;28;20393;-67
2023/02/03 14:40:32;;;;;;;11.35;5.78;;;;;;;;;;6126025;28;20287;-67
2023/02/03 14:43:37;;;;;;;11.98;5.78;;;;;;;;;;6124583;28;20051;-67
2023/02/03 14:46:50;;;;;;;9.65;5.60;;;;;;;;;;6127619;28;20060;-67
2023/02/03 14:50:11;;;;;;;9.10;5.45;;;;;;;;;;6130203;28;20060;-67
2023/02/03 14:53:26;;;;;;;9.10;4.85;;;;;;;;;;6130913;28;20063;-67
2023/02/03 15:00:02;;;;;;;8.45;4.57;;;;;;;;;;6128290;28;20246;-66
2023/02/03 15:03:34;;;;;;;8.10;4.75;;;;;;;;;;6126961;28;20062;-66
2023/02/03 15:06:40;;;;;;;11.98;5.72;;;;;;;;;;6077549;29;20064;-67
2023/02/03 15:09:45;;;;;;;9.32;5.32;;;;;;;;;;6053661;29;20191;-66
2023/02/03 15:12:48;;;;;;;7.70;4.13;;;;;;;;;;6076664;29;20084;-66
2023/02/03 15:15:52;;;;;;;9.68;4.68;;;;;;;;;;6079174;29;20124;-66
2023/02/03 15:18:56;;;;;;;8.90;4.20;;;;;;;;;;6075764;29;20364;-66
2023/02/03 15:21:57;;;;;;;;;;;;;;;;;;6077568;29;20195;-67
2023/02/03 15:25:03;;;;;;;7.75;3.80;;;;;;;;;;6074278;29;19927;-67
2023/02/03 15:28:11;;;;;;;9.73;3.97;;;;;;;;;;6073301;29;20061;-67
2023/02/03 15:31:19;;;;;;;8.48;4.85;;;;;;;;;;6077906;29;20048;-66
2023/02/03 15:34:25;;;;;;;11.65;4.30;;;;;;;;;;6071816;29;20112;-67
2023/02/03 15:37:30;;;;;;;10.10;3.92;;;;;;;;;;6072548;29;20055;-66
2023/02/03 15:40:37;;;;;;;5.93;3.65;;;;;;;;;;6101808;28;20067;-66
2023/02/03 15:43:41;;;;;;;9.02;4.18;;;;;;;;;;6125246;28;20115;-67
2023/02/03 15:46:45;;;;;;;8.07;4.20;;;;;;;;;;6125786;28;20067;-67
2023/02/03 15:49:50;;;;;;;9.30;4.07;;;;;;;;;;6128578;28;20133;-66
2023/02/03 15:52:54;;;;;;;8.55;4.40;;;;;;;;;;6127112;28;20059;-67
2023/02/03 15:56:02;;;;;;;9.90;4.57;;;;;;;;;;6128412;28;20063;-66
2023/02/03 15:59:04;;;;;;;9.57;4.40;;;;;;;;;;6121026;28;20067;-66
2023/02/03 16:02:14;;;;;;;10.27;4.70;;;;;;;;;;6124897;29;20236;-66
2023/02/03 16:05:22;;;;;;;15.50;4.95;;;;;;;;;;6127454;28;20169;-67
2023/02/03 16:08:44;;;;;;;11.48;5.07;;;;;;;;;;6127966;28;20060;-67
2023/02/03 16:11:47;;;;;;;9.40;4.15;;;;;;;;;;6125633;28;20056;-66
2023/02/03 16:14:50;;;;;;;10.25;4.80;;;;;;;;;;6123722;28;20048;-65
2023/02/03 16:17:56;;;;;;;12.38;5.43;;;;;;;;;;6127195;28;20059;-68
2023/02/03 16:20:57;;;;;;;8.80;4.70;;;;;;;;;;6125316;28;20055;-66
2023/02/03 16:23:59;;;;;;;13.18;5.75;;;;;;;;;;6125989;28;21465;-66
2023/02/03 16:27:29;;;;;;;11.05;5.72;;;;;;;;;;6126768;28;20068;-67
2023/02/03 16:50:54;;;;;;;11.38;6.75;;;;;;;;;;6126341;28;20060;-67
2023/02/03 16:53:56;;;;;;;11.70;6.57;;;;;;;;;;6103687;28;20118;-66
2023/02/03 16:56:58;;;;;;;14.65;8.23;;;;;;;;;;6128026;28;20052;-67
2023/02/03 17:00:01;;;;;;;12.95;7.18;;;;;;;;;;6125724;29;20239;-66
2023/02/03 17:03:04;;;;;;;12.43;7.70;;;;;;;;;;6105087;28;20055;-67
2023/02/03 17:06:07;;;;;;;16.43;8.07;;;;;;;;;;6127860;28;22044;-67
2023/02/03 17:09:09;;;;;;;13.32;8.10;;;;;;;;;;6125905;28;20082;-67
2023/02/03 17:12:11;;;;;;;16.58;7.50;;;;;;;;;;6125551;28;20119;-67
2023/02/03 17:15:14;;;;;;;13.68;7.68;;;;;;;;;;6126088;28;20056;-67
2023/02/03 17:18:16;;;;;;;17.48;9.07;;;;;;;;;;6127653;28;20107;-67
2023/02/03 17:21:19;;;;;;;19.75;9.05;;;;;;;;;;6126053;28;20056;-67
2023/02/03 17:24:21;;;;;;;15.00;8.73;;;;;;;;;;6127325;28;20055;-67
2023/02/03 17:27:22;;;;;;;12.98;7.90;;;;;;;;;;6127559;28;21140;-67
2023/02/03 17:30:27;;;;;;;14.25;7.82;;;;;;;;;;6126991;28;20103;-66
2023/02/03 17:33:29;;;;;;;11.73;7.13;;;;;;;;;;6126809;29;20252;-67
2023/02/03 17:36:30;;;;;;;13.18;6.93;;;;;;;;;;6126459;28;20103;-67
2023/02/03 17:39:32;;;;;;;12.35;7.47;;;;;;;;;;6128138;28;20063;-67
2023/02/03 17:42:34;;;;;;;14.45;7.53;;;;;;;;;;6125545;28;20060;-67
2023/02/03 17:45:41;;;;;;;14.85;7.50;;;;;;;;;;6125726;28;20060;-67
2023/02/03 17:48:42;;;;;;;14.05;8.27;;;;;;;;;;6126363;28;20111;-67
2023/02/03 17:51:44;;;;;;;16.90;8.48;;;;;;;;;;6124887;28;20051;-66
2023/02/03 17:54:47;;;;;;;15.57;8.55;;;;;;;;;;6128455;28;20089;-67
2023/02/03 17:57:48;;;;;;;13.70;7.82;;;;;;;;;;6126956;28;20059;-66
2023/02/03 18:00:51;;;;;;;13.68;7.88;;;;;;;;;;6127807;28;20074;-67
2023/02/03 18:03:56;;;;;;;14.27;8.40;;;;;;;;;;6126764;28;20056;-67
2023/02/03 18:06:57;;;;;;;14.25;7.82;;;;;;;;;;6124907;28;20108;-67
2023/02/03 18:09:59;;;;;;;13.73;7.28;;;;;;;;;;6127499;28;20051;-66
2023/02/03 18:13:00;;;;;;;13.95;7.60;;;;;;;;;;6125858;28;20055;-67
2023/02/03 18:16:04;;;;;;;12.82;7.18;;;;;;;;;;6129622;28;20052;-67
2023/02/03 18:19:07;;;;;;;12.93;7.32;;;;;;;;;;6124616;28;20124;-67
2023/02/03 18:22:09;;;;;;;12.70;6.65;;;;;;;;;;6128364;28;20291;-67
2023/02/03 18:25:11;;;;;;;10.02;5.25;;;;;;;;;;6134536;28;20304;-66
2023/02/03 18:28:14;;;;;;;10.15;5.72;;;;;;;;;;6131460;28;20079;-67
2023/02/03 18:31:17;;;;;;;11.32;5.45;;;;;;;;;;6133373;28;20064;-67
2023/02/03 18:34:19;;;;;;;9.97;4.77;;;;;;;;;;6129758;28;20086;-67